Bookmark and Share
Track history (hours):
 

Island Escape

Operator: V Ships Leisure SAM

Last reported at 2014-Apr-23 08:33 UTC. Time now 2014-Apr-23 09:12 UTC.
Position N 37°33' W 000°03'.

Length 185 m; draft 7.3 m.

Type: Passenger vessel. MMSI: 311368000.

NotesDate/timePositionNaut miles runAvg speedWind from/ knotsBaromVisibWave heightAir tempDewpointWater temp
2014-Apr-23 08:33N 37°33' W 000°03'14115.7
2014-Apr-22 23:33N 39°02' E 002°15'1616.2
2014-Apr-22 22:33N 39°16' E 002°27'1616.2
2014-Apr-22 21:33N 39°30' E 002°38'4 3.6
2014-Apr-22 20:31N 39°33' E 002°38'0 0.0
2014-Apr-22 19:31N 39°33' E 002°38'0 0.0
2014-Apr-22 18:31N 39°33' E 002°38'0 0.0
2014-Apr-22 17:31N 39°33' E 002°38'0 0.0
2014-Apr-22 16:31N 39°33' E 002°38'0 0.0
2014-Apr-22 15:31N 39°33' E 002°38'0 0.0
2014-Apr-22 14:31N 39°33' E 002°38'0 0.0
2014-Apr-22 13:31N 39°33' E 002°38'0 0.0
2014-Apr-22 12:31N 39°33' E 002°38'0 0.0
2014-Apr-22 11:31N 39°33' E 002°38'0 0.0
2014-Apr-22 10:28N 39°33' E 002°38'0 0.0
2014-Apr-22 09:31N 39°33' E 002°38'0 0.0
2014-Apr-22 08:31N 39°33' E 002°38'0 0.0
2014-Apr-22 07:31N 39°33' E 002°38'0 0.0
2014-Apr-22 06:31N 39°33' E 002°38'0 0.0
2014-Apr-22 05:31N 39°33' E 002°38'0 0.0
2014-Apr-22 04:31N 39°33' E 002°38'0 0.2
2014-Apr-22 03:33N 39°33' E 002°38'6 6.0
2014-Apr-22 02:34N 39°28' E 002°35'1211.5
2014-Apr-22 01:33N 39°29' E 002°20'1414.0
2014-Apr-22 00:33N 39°43' E 002°15'1413.9
2014-Apr-21 23:33N 39°56' E 002°14'1212.4
2014-Apr-21 22:33N 40°09' E 002°13'1313.4
2014-Apr-21 21:33N 40°22' E 002°12'1514.7
2014-Apr-21 20:34N 40°37' E 002°12'1615.6
2014-Apr-21 19:33N 40°52' E 002°11'1616.4
2014-Apr-21 18:33N 41°09' E 002°10'1312.2
2014-Apr-21 17:31N 41°21' E 002°11'0 0.0
2014-Apr-21 07:30N 41°21' E 002°11'8 7.6
2014-Apr-21 06:26N 41°17' E 002°20'1213.6
2014-Apr-21 05:32N 41°21' E 002°35'1313.3
2014-Apr-21 04:33N 41°25' E 002°51'1313.0
2014-Apr-21 03:33N 41°31' E 003°07'1514.9
2014-Apr-21 02:33N 41°38' E 003°25'1616.0
2014-Apr-21 01:33N 41°46' E 003°44'1716.7
2014-Apr-21 00:33N 41°54' E 004°03'1616.4
2014-Apr-20 23:33N 42°02' E 004°23'1615.8
2014-Apr-20 22:33N 42°09' E 004°41'1717.0
2014-Apr-20 21:33N 42°18' E 005°01'1716.6
2014-Apr-20 20:32N 42°26' E 005°21'1816.6
2014-Apr-20 19:29N 42°34' E 005°42'1516.3
2014-Apr-20 18:33N 42°41' E 005°60'1717.3
2014-Apr-20 17:33N 42°50' E 006°21'1717.2
2014-Apr-20 16:33N 43°01' E 006°39'3517.3
2014-Apr-20 14:33N 43°28' E 007°09'1514.9
2014-Apr-20 13:33N 43°41' E 007°17'0 0.4
2014-Apr-20 12:31N 43°42' E 007°17'0 0.0
2014-Apr-20 11:31N 43°42' E 007°17'0 0.0
2014-Apr-20 10:25N 43°42' E 007°17'0 0.0
2014-Apr-20 09:25N 43°42' E 007°17'0 0.0
2014-Apr-20 08:19N 43°42' E 007°17'0 0.0
2014-Apr-20 07:31N 43°42' E 007°17'0 0.0
2014-Apr-20 06:31N 43°42' E 007°17'0 0.0
2014-Apr-20 05:32N 43°42' E 007°17'5 5.5
2014-Apr-20 04:33N 43°38' E 007°23'6611.1
2014-Apr-19 22:33N 43°34' E 008°55'1111.4
2014-Apr-19 21:34N 43°34' E 009°10'1211.5
2014-Apr-19 20:34N 43°34' E 009°26'1212.2
2014-Apr-19 19:34N 43°33' E 009°43'1212.0
2014-Apr-19 18:34N 43°32' E 009°59'1111.3
2014-Apr-19 17:34N 43°32' E 010°15'2 2.1
2014-Apr-19 16:33N 43°33' E 010°18'0 0.0
2014-Apr-19 15:33N 43°33' E 010°18'0 0.0
2014-Apr-19 14:33N 43°33' E 010°18'0 0.0
2014-Apr-19 13:33N 43°33' E 010°18'0 0.0
2014-Apr-19 12:33N 43°33' E 010°18'0 0.0
2014-Apr-19 11:30N 43°33' E 010°18'0 0.0
2014-Apr-19 10:33N 43°33' E 010°18'0 0.0
2014-Apr-19 09:33N 43°33' E 010°18'0 0.0
2014-Apr-19 08:33N 43°33' E 010°18'0 0.0
2014-Apr-19 07:33N 43°33' E 010°18'0 0.0
2014-Apr-19 06:33N 43°33' E 010°18'0 0.0
2014-Apr-19 05:33N 43°33' E 010°18'0 0.0
2014-Apr-19 04:33N 43°33' E 010°18'6 5.9
2014-Apr-19 03:33N 43°29' E 010°13'1515.4
2014-Apr-19 02:33N 43°14' E 010°08'  
2014-Apr-16 07:17N 39°32' E 004°19'1210.6
2014-Apr-16 06:11N 39°25' E 004°06'2011.1
2014-Apr-16 04:22N 39°14' E 003°45'910.8
2014-Apr-16 03:33N 39°09' E 003°35'1111.3
2014-Apr-16 02:33N 39°02' E 003°23'1111.4
2014-Apr-16 01:33N 39°01' E 003°09'1111.5
2014-Apr-16 00:33N 39°01' E 002°54'1010.2
2014-Apr-15 23:34N 39°09' E 002°46'1211.8
2014-Apr-15 22:33N 39°21' E 002°42'1111.2
2014-Apr-15 21:33N 39°32' E 002°40'2 1.9
2014-Apr-15 20:31N 39°33' E 002°38'0 0.0
2014-Apr-15 19:31N 39°33' E 002°38'0 0.0
2014-Apr-15 18:31N 39°33' E 002°38'0 0.0
2014-Apr-15 17:33N 39°33' E 002°38'0 0.0
2014-Apr-15 16:28N 39°33' E 002°38'0 0.0
2014-Apr-15 15:31N 39°33' E 002°38'0 0.0
2014-Apr-15 14:31N 39°33' E 002°38'0 0.0
2014-Apr-15 11:31N 39°33' E 002°38'0 0.0
2014-Apr-15 10:31N 39°33' E 002°38'0 0.0
2014-Apr-15 09:31N 39°33' E 002°38'0 0.0
2014-Apr-15 08:31N 39°33' E 002°38'0 0.0
2014-Apr-15 07:31N 39°33' E 002°38'0 0.0
2014-Apr-15 06:31N 39°33' E 002°38'0 0.0
2014-Apr-15 05:31N 39°33' E 002°38'0 0.0
2014-Apr-15 03:31N 39°33' E 002°38'0 0.2
2014-Apr-15 02:34N 39°33' E 002°38'5 4.9
2014-Apr-15 01:34N 39°29' E 002°36'1312.7
2014-Apr-15 00:33N 39°26' E 002°20'1414.2
2014-Apr-14 23:34N 39°26' E 002°01'1312.8
2014-Apr-14 22:33N 39°26' E 001°45'1413.6
2014-Apr-14 21:34N 39°25' E 001°27'103 4.3
2014-Apr-13 21:22N 38°08' W 000°00'1011.8
2014-Apr-13 20:32N 38°00' W 000°08'1812.5
2014-Apr-13 19:05N 37°45' W 000°21'711.7
2014-Apr-13 18:27N 37°39' W 000°26'1111.6
2014-Apr-13 17:28N 37°31' W 000°36'1112.2
2014-Apr-13 16:32N 37°31' W 000°51'  

Dump ship's entire track history

sailing weather and tide predictions

Island Escape — C6SK4 — position and weather